Time;durP1;ratioP1;P1;durP2;ratioP2;P2;SDS_P1;SDS_P2;PMS_P1;PMS_P2;Temp;Humidity;BMP_temperature;BMP_pressure;BME280_temperature;BME280_humidity;BME280_pressure;Samples;Min_cycle;Max_cycle;Signal;HPM_P1;HPM_P2
2021/11/09 00:00:33;;;;;;;14.45;9.98;;;6.30;99.90;;;;;;4997756;28;20468;-88
2021/11/09 00:03:00;;;;;;;18.27;11.25;;;8.40;99.90;;;;;;4996206;28;20176;-88
2021/11/09 00:05:29;;;;;;;15.85;10.57;;;6.60;99.90;;;;;;4978574;28;20622;-87
2021/11/09 00:07:59;;;;;;;20.90;11.43;;;5.90;99.90;;;;;;4978307;28;20225;-88
2021/11/09 00:10:28;;;;;;;22.52;10.35;;;8.20;99.90;;;;;;4978337;28;20244;-89
2021/11/09 00:13:00;;;;;;;14.23;9.98;;;6.60;99.90;;;;;;4978001;28;20177;-87
2021/11/09 00:15:27;;;;;;;18.98;12.20;;;5.60;99.90;;;;;;4995795;28;20220;-88
2021/11/09 00:17:58;;;;;;;25.50;11.40;;;7.50;99.90;;;;;;4978479;28;20193;-87
2021/11/09 00:20:28;;;;;;;19.25;10.73;;;6.10;99.90;;;;;;4995741;28;20268;-88
2021/11/09 00:22:55;;;;;;;27.85;12.45;;;6.20;99.90;;;;;;4995644;28;20187;-88
2021/11/09 00:25:22;;;;;;;18.83;11.00;;;6.70;99.90;;;;;;4978246;28;20185;-88
2021/11/09 00:27:48;;;;;;;15.52;9.85;;;6.60;99.90;;;;;;4978402;28;20177;-87
2021/11/09 00:30:16;;;;;;;18.57;10.50;;;8.50;99.90;;;;;;4995938;28;20178;-88
2021/11/09 00:32:43;;;;;;;22.17;10.60;;;6.50;99.90;;;;;;4995578;28;20196;-88
2021/11/09 00:35:14;;;;;;;15.85;9.32;;;6.40;99.90;;;;;;4995804;28;20607;-88
2021/11/09 00:37:42;;;;;;;18.88;9.70;;;8.60;99.90;;;;;;4996161;28;20502;-88
2021/11/09 00:40:12;;;;;;;23.30;10.18;;;4.90;99.90;;;;;;4978507;28;20221;-88
2021/11/09 00:42:41;;;;;;;18.70;9.25;;;6.60;99.90;;;;;;4978075;28;20173;-87
2021/11/09 00:45:12;;;;;;;15.57;8.73;;;6.80;99.90;;;;;;4978077;28;20656;-87
2021/11/09 00:47:37;;;;;;;13.18;8.82;;;8.00;99.90;;;;;;4995991;28;20201;-88
2021/11/09 00:50:06;;;;;;;19.80;10.73;;;4.80;99.90;;;;;;4995565;28;20182;-88
2021/11/09 00:52:33;;;;;;;16.55;9.20;;;6.50;99.90;;;;;;4995493;28;20169;-88
2021/11/09 00:54:59;;;;;;;20.90;10.73;;;5.10;99.90;;;;;;4978022;28;20184;-88
2021/11/09 00:57:24;;;;;;;18.63;9.73;;;6.70;99.90;;;;;;4995611;28;20169;-89
2021/11/09 00:59:50;;;;;;;15.17;9.80;;;8.00;99.90;;;;;;4978285;28;20681;-88
2021/11/09 01:02:15;;;;;;;13.47;9.43;;;6.00;99.90;;;;;;4995570;28;20201;-88
2021/11/09 01:04:41;;;;;;;29.03;10.20;;;7.70;99.90;;;;;;4977953;28;20180;-87
2021/11/09 01:07:07;;;;;;;19.43;10.37;;;6.70;99.90;;;;;;4995549;28;20240;-88
2021/11/09 01:09:50;;;;;;;14.60;9.77;;;4.80;99.90;;;;;;4978434;28;20223;-88
2021/11/09 01:12:16;;;;;;;21.35;10.65;;;6.70;99.90;;;;;;4995905;28;20173;-88
2021/11/09 01:14:43;;;;;;;17.40;10.33;;;4.80;99.90;;;;;;4995190;28;20200;-87
2021/11/09 01:17:08;;;;;;;21.48;11.95;;;4.50;99.90;;;;;;4995155;28;20169;-87
2021/11/09 01:19:34;;;;;;;22.77;16.90;;;6.90;99.90;;;;;;4995224;28;20200;-87
2021/11/09 01:22:02;;;;;;;30.23;17.90;;;7.20;99.90;;;;;;4995191;28;20577;-87
2021/11/09 01:24:28;;;;;;;26.60;17.98;;;5.80;99.90;;;;;;4981599;28;20177;-88
2021/11/09 01:26:54;;;;;;;16.40;13.57;;;5.00;99.90;;;;;;4998735;28;20589;-88
2021/11/09 01:29:20;;;;;;;22.58;12.57;;;5.50;99.90;;;;;;4978000;28;20236;-87
2021/11/09 01:31:50;;;;;;;21.08;13.60;;;6.30;99.90;;;;;;4978041;28;20187;-87
2021/11/09 01:34:16;;;;;;;17.20;12.18;;;5.60;99.90;;;;;;4995420;28;20162;-87
2021/11/09 01:36:41;;;;;;;23.37;11.87;;;5.40;99.90;;;;;;4977573;28;20338;-89
2021/11/09 01:39:08;;;;;;;22.70;12.17;;;8.10;99.90;;;;;;4976923;28;20206;-87
2021/11/09 01:41:34;;;;;;;31.98;10.20;;;6.70;99.90;;;;;;4994321;28;20169;-88
2021/11/09 01:44:01;;;;;;;19.77;11.40;;;9.50;99.90;;;;;;4976611;28;20172;-87
2021/11/09 01:46:26;;;;;;;9.93;8.85;;;5.30;99.90;;;;;;4994512;28;20265;-88
2021/11/09 01:48:52;;;;;;;22.73;10.33;;;7.30;99.90;;;;;;4977283;28;20201;-88
2021/11/09 01:51:20;;;;;;;22.47;12.03;;;7.10;99.90;;;;;;4995851;28;20681;-88
2021/11/09 01:53:48;;;;;;;18.20;13.73;;;6.20;99.90;;;;;;4976565;28;20170;-88
2021/11/09 01:56:17;;;;;;;22.25;12.15;;;5.00;99.90;;;;;;4976683;28;20645;-89
2021/11/09 01:58:43;;;;;;;28.35;14.68;;;4.20;99.90;;;;;;4994165;28;20173;-88
2021/11/09 02:01:13;;;;;;;25.00;14.70;;;6.80;99.90;;;;;;4975960;28;20248;-88
2021/11/09 02:03:42;;;;;;;30.35;17.92;;;6.30;99.90;;;;;;4976681;28;20172;-89
2021/11/09 02:06:10;;;;;;;29.88;14.73;;;3.10;99.90;;;;;;4976484;28;20227;-88
2021/11/09 02:08:36;;;;;;;27.88;17.40;;;5.20;99.90;;;;;;4993773;28;20627;-88
2021/11/09 02:11:02;;;;;;;27.88;15.27;;;4.90;99.90;;;;;;4993790;28;20184;-89
2021/11/09 02:13:28;;;;;;;24.50;14.00;;;4.40;99.90;;;;;;4993946;28;20169;-89
2021/11/09 02:15:54;;;;;;;17.83;11.70;;;5.00;99.90;;;;;;4976388;28;20228;-88
2021/11/09 02:18:21;;;;;;;24.80;13.75;;;5.20;99.90;;;;;;4993936;28;20412;-88
2021/11/09 02:21:01;;;;;;;24.92;16.13;;;4.80;99.90;;;;;;4976443;28;20748;-88
2021/11/09 02:23:28;;;;;;;23.77;12.85;;;5.70;99.90;;;;;;4976482;28;20177;-88
2021/11/09 02:25:54;;;;;;;18.85;13.10;;;6.20;99.90;;;;;;4994884;28;20180;-88
2021/11/09 02:28:20;;;;;;;16.55;12.73;;;5.40;99.90;;;;;;4978829;28;20622;-88
2021/11/09 02:30:47;;;;;;;17.40;10.07;;;7.10;99.90;;;;;;4994417;28;20621;-88
2021/11/09 02:33:14;;;;;;;17.25;12.20;;;6.80;99.90;;;;;;4994318;28;20169;-89
2021/11/09 02:35:40;;;;;;;18.10;14.20;;;6.00;99.90;;;;;;4994185;28;20193;-89
2021/11/09 02:38:06;;;;;;;25.67;14.02;;;5.30;99.90;;;;;;4977022;28;20264;-88
2021/11/09 02:40:33;;;;;;;14.35;11.23;;;4.60;99.90;;;;;;4976854;28;20335;-89
2021/11/09 02:43:03;;;;;;;20.05;12.40;;;4.50;99.90;;;;;;4976870;28;20176;-87
2021/11/09 02:46:06;;;;;;;20.33;15.95;;;4.30;99.90;;;;;;4994195;28;20708;-88
2021/11/09 02:48:34;;;;;;;28.60;16.83;;;5.50;99.90;;;;;;4993660;28;20263;-88
2021/11/09 02:51:12;;;;;;;23.70;17.42;;;5.10;99.90;;;;;;4977052;28;20181;-88
2021/11/09 02:53:45;;;;;;;18.77;13.60;;;5.80;99.90;;;;;;4977389;28;20169;-87
2021/11/09 02:59:01;;;;;;;27.10;17.00;;;4.50;99.90;;;;;;4994313;28;20166;-87
2021/11/09 03:01:34;;;;;;;31.70;20.90;;;4.50;99.90;;;;;;4977700;28;20185;-88
2021/11/09 03:04:22;;;;;;;37.45;17.15;;;7.50;99.90;;;;;;4976688;28;20184;-88
2021/11/09 03:07:00;;;;;;;32.13;16.60;;;5.50;99.90;;;;;;4993612;28;20689;-88
2021/11/09 03:09:40;;;;;;;32.92;21.42;;;4.70;99.90;;;;;;4993886;28;20220;-88
2021/11/09 03:12:09;;;;;;;29.67;23.38;;;7.10;99.90;;;;;;4977879;28;20265;-88
2021/11/09 03:14:35;;;;;;;33.03;20.63;;;5.20;99.90;;;;;;4981625;28;20220;-88
2021/11/09 03:17:05;;;;;;;33.63;19.17;;;3.60;99.90;;;;;;4980212;28;20165;-88
2021/11/09 03:19:38;;;;;;;28.00;17.25;;;4.80;99.90;;;;;;4980783;28;20455;-88
2021/11/09 03:46:49;;;;;;;34.30;16.90;;;4.90;99.90;;;;;;4996672;28;20257;-87
2021/11/09 03:49:16;;;;;;;28.90;14.80;;;4.50;99.90;;;;;;4979205;28;20169;-87
2021/11/09 03:51:41;;;;;;;25.45;17.30;;;4.80;99.90;;;;;;4979238;28;20183;-88
2021/11/09 03:54:13;;;;;;;32.43;16.37;;;4.40;99.90;;;;;;4978990;28;20264;-88
2021/11/09 03:56:50;;;;;;;24.08;13.32;;;4.70;99.90;;;;;;4979018;28;20169;-88
2021/11/09 03:59:24;;;;;;;24.58;14.55;;;7.00;99.90;;;;;;4979114;28;20376;-87
2021/11/09 04:04:36;;;;;;;30.90;16.00;;;4.60;99.90;;;;;;4997230;28;20173;-87
2021/11/09 04:09:51;;;;;;;22.90;16.98;;;4.90;99.90;;;;;;4996733;28;20235;-88
2021/11/09 04:12:33;;;;;;;25.25;14.82;;;4.40;99.90;;;;;;4997171;28;20169;-87
2021/11/09 04:30:50;;;;;;;31.10;14.57;;;4.50;99.90;;;;;;4996666;28;20239;-87
2021/11/09 04:39:14;;;;;;;23.67;12.85;;;4.80;99.90;;;;;;4996667;28;20200;-87
2021/11/09 05:08:49;;;;;;;15.65;11.82;;;4.50;99.90;;;;;;4996359;28;20245;-88
2021/11/09 05:11:15;;;;;;;17.17;12.70;;;4.60;99.90;;;;;;4979459;28;20176;-87
2021/11/09 05:13:41;;;;;;;14.77;11.93;;;4.90;99.90;;;;;;4996444;28;20653;-86
2021/11/09 05:16:07;;;;;;;15.30;11.73;;;;;;;;;;4995663;28;20172;-87
2021/11/09 05:18:32;;;;;;;14.50;12.30;;;4.80;99.90;;;;;;4995414;28;20201;-84
2021/11/09 05:20:58;;;;;;;15.07;11.00;;;3.60;99.90;;;;;;4977672;28;20530;-86
2021/11/09 05:23:24;;;;;;;14.17;12.70;;;3.90;99.90;;;;;;4977861;28;20264;-86
2021/11/09 05:25:50;;;;;;;13.53;11.90;;;;;;;;;;4996204;28;20927;-88
2021/11/09 05:28:16;;;;;;;10.95;9.95;;;4.70;99.90;;;;;;4979327;28;20200;-88
2021/11/09 05:30:47;;;;;;;33.70;13.65;;;6.20;99.90;;;;;;4996100;28;20248;-87
2021/11/09 05:33:13;;;;;;;14.90;11.55;;;5.90;99.90;;;;;;4997372;28;20259;-88
2021/11/09 05:35:39;;;;;;;14.40;11.68;;;2.50;99.90;;;;;;4978722;28;20185;-88
2021/11/09 05:38:08;;;;;;;16.80;12.77;;;3.20;99.90;;;;;;4980241;28;20204;-87
2021/11/09 05:40:39;;;;;;;15.90;12.70;;;4.40;99.90;;;;;;4995937;28;20300;-88
2021/11/09 05:43:05;;;;;;;24.10;13.25;;;3.30;99.90;;;;;;4978503;28;20316;-88
2021/11/09 05:45:31;;;;;;;15.27;12.27;;;4.60;99.90;;;;;;4978097;28;20201;-89
2021/11/09 05:47:57;;;;;;;20.15;12.70;;;3.90;99.90;;;;;;4981008;28;20173;-87
2021/11/09 05:50:24;;;;;;;19.08;12.05;;;4.60;99.90;;;;;;4983315;28;20173;-87
2021/11/09 05:52:50;;;;;;;15.73;12.05;;;6.30;99.90;;;;;;4978190;28;20173;-88
2021/11/09 05:55:16;;;;;;;22.23;14.20;;;;;;;;;;4997658;28;20186;-87
2021/11/09 05:57:42;;;;;;;20.30;13.30;;;4.50;99.90;;;;;;4997006;28;20448;-87
2021/11/09 06:00:10;;;;;;;14.95;11.60;;;2.40;99.90;;;;;;4978850;28;20205;-87
2021/11/09 06:02:36;;;;;;;17.42;11.32;;;4.30;99.90;;;;;;4978489;28;20173;-87
2021/11/09 06:05:02;;;;;;;14.57;12.23;;;2.80;99.90;;;;;;4996265;28;20174;-88
2021/11/09 06:07:28;;;;;;;19.30;14.05;;;4.60;99.90;;;;;;4996217;28;20275;-87
2021/11/09 06:09:55;;;;;;;16.57;13.37;;;4.00;99.90;;;;;;4979734;28;20181;-87
2021/11/09 06:12:20;;;;;;;16.40;12.77;;;3.90;99.90;;;;;;4995479;28;20172;-87
2021/11/09 06:14:46;;;;;;;14.40;12.57;;;;;;;;;;4978085;28;20209;-87
2021/11/09 06:17:12;;;;;;;18.27;13.63;;;4.50;99.90;;;;;;4978559;28;20181;-86
2021/11/09 06:19:38;;;;;;;15.40;12.40;;;4.20;99.90;;;;;;4979560;28;20510;-88
2021/11/09 06:22:04;;;;;;;15.63;12.73;;;6.80;99.90;;;;;;4997457;28;20189;-87
2021/11/09 06:24:30;;;;;;;15.10;12.20;;;6.50;99.90;;;;;;4978849;28;20223;-87
2021/11/09 06:26:56;;;;;;;17.57;12.80;;;4.30;99.90;;;;;;4979160;28;20240;-88
2021/11/09 06:29:22;;;;;;;13.87;12.57;;;;;;;;;;4996498;28;20165;-85
2021/11/09 06:31:49;;;;;;;17.83;12.15;;;4.50;99.90;;;;;;4996378;28;20408;-87
2021/11/09 06:34:15;;;;;;;13.45;12.15;;;4.70;99.90;;;;;;4979534;28;20177;-87
2021/11/09 06:36:48;;;;;;;15.60;11.90;;;4.30;99.90;;;;;;4997321;28;20176;-87
2021/11/09 06:39:14;;;;;;;14.15;12.48;;;3.60;99.90;;;;;;4998280;28;20413;-88
2021/11/09 06:41:41;;;;;;;16.37;12.47;;;;;;;;;;4998332;28;20189;-87
2021/11/09 06:44:06;;;;;;;13.98;11.45;;;4.60;99.90;;;;;;4988535;28;20174;-86
2021/11/09 06:46:35;;;;;;;13.93;12.30;;;6.90;99.90;;;;;;4988631;28;20188;-88
2021/11/09 06:49:03;;;;;;;11.52;10.32;;;3.00;99.90;;;;;;4974266;28;20169;-90
2021/11/09 06:51:29;;;;;;;15.65;11.15;;;7.80;99.90;;;;;;4991929;28;20188;-88
2021/11/09 06:53:55;;;;;;;11.90;10.38;;;6.40;99.90;;;;;;5006187;28;20291;-88
2021/11/09 06:56:21;;;;;;;20.37;11.33;;;5.40;99.90;;;;;;4989904;28;20180;-88
2021/11/09 06:58:56;;;;;;;16.10;12.57;;;4.70;99.90;;;;;;4641785;28;10000372;-90
2021/11/09 07:01:21;;;;;;;13.25;9.43;;;8.70;99.90;;;;;;4971707;28;20304;-90
2021/11/09 07:04:08;;;;;;;13.00;11.70;;;5.70;99.90;;;;;;4973399;28;20158;-87
2021/11/09 07:06:56;;;;;;;10.75;9.85;;;7.30;99.90;;;;;;4956891;28;20178;-87
2021/11/09 07:09:25;;;;;;;13.02;9.70;;;5.10;99.90;;;;;;4976454;29;20189;-91
2021/11/09 07:11:59;;;;;;;11.13;9.98;;;5.10;99.90;;;;;;4954875;29;20178;-90
2021/11/09 07:14:30;;;;;;;11.25;10.18;;;5.10;99.90;;;;;;4938616;29;20269;-89
2021/11/09 07:16:56;;;;;;;11.68;10.52;;;7.40;99.90;;;;;;4951758;29;20203;-92
2021/11/09 07:19:33;;;;;;;11.60;10.40;;;5.10;99.90;;;;;;4950076;29;20229;-91
2021/11/09 07:21:59;;;;;;;14.88;9.52;;;6.60;99.90;;;;;;4954735;29;20182;-89
2021/11/09 07:24:25;;;;;;;11.07;9.97;;;8.70;99.90;;;;;;4968977;29;20194;-91
2021/11/09 07:26:53;;;;;;;14.07;11.10;;;6.00;99.90;;;;;;4948619;29;20179;-91
2021/11/09 07:29:24;;;;;;;12.10;10.05;;;6.10;99.90;;;;;;4950533;29;20443;-90
2021/11/09 07:31:56;;;;;;;14.60;11.90;;;4.90;99.90;;;;;;4948817;29;20179;-92
2021/11/09 07:34:30;;;;;;;14.00;11.45;;;9.40;99.90;;;;;;4935001;29;20205;-91
2021/11/09 07:36:56;;;;;;;12.05;10.70;;;8.90;99.90;;;;;;4953785;28;20201;-88
2021/11/09 07:39:25;;;;;;;22.27;15.30;;;5.70;99.90;;;;;;4962292;28;20241;-90
2021/11/09 07:41:53;;;;;;;13.65;11.60;;;8.60;99.90;;;;;;4975381;28;20233;-88
2021/11/09 07:44:22;;;;;;;13.40;11.35;;;4.50;99.90;;;;;;4972018;29;20238;-90
2021/11/09 07:46:54;;;;;;;15.45;12.45;;;6.50;99.90;;;;;;4959169;29;20182;-90
2021/11/09 07:49:24;;;;;;;22.30;13.90;;;5.10;99.90;;;;;;4956472;29;20191;-88
2021/11/09 07:51:51;;;;;;;22.10;13.77;;;5.60;99.90;;;;;;4953276;29;20182;-89
2021/11/09 07:54:23;;;;;;;14.05;12.52;;;7.20;99.90;;;;;;4941436;29;20194;-89
2021/11/09 07:56:49;;;;;;;22.08;12.00;;;4.90;99.90;;;;;;4955753;29;20209;-88
2021/11/09 07:59:33;;;;;;;16.33;13.15;;;5.40;99.90;;;;;;4627679;28;9999951;-88
2021/11/09 08:02:06;;;;;;;21.77;14.68;;;5.40;99.90;;;;;;4960856;28;20272;-88
2021/11/09 08:04:42;;;;;;;23.33;16.35;;;6.10;99.90;;;;;;4979277;28;20169;-88
2021/11/09 08:07:18;;;;;;;19.45;15.00;;;5.60;99.90;;;;;;4985713;28;20318;-89
2021/11/09 08:09:44;;;;;;;21.08;13.93;;;6.50;99.90;;;;;;5016727;28;20168;-85
2021/11/09 08:12:10;;;;;;;18.13;13.27;;;5.70;99.90;;;;;;4998404;28;20679;-87
2021/11/09 08:14:36;;;;;;;18.27;14.60;;;6.50;99.90;;;;;;4998132;28;20184;-86
2021/11/09 08:17:04;;;;;;;15.98;13.00;;;6.00;99.90;;;;;;5016072;28;20411;-86
2021/11/09 08:19:30;;;;;;;15.95;14.20;;;6.00;99.90;;;;;;5017304;28;20192;-87
2021/11/09 08:21:57;;;;;;;17.70;14.10;;;5.40;99.90;;;;;;5017755;28;20568;-88
2021/11/09 08:24:31;;;;;;;16.65;13.35;;;6.00;99.90;;;;;;4998740;28;20200;-86
2021/11/09 08:27:05;;;;;;;19.27;11.50;;;5.30;99.90;;;;;;4998087;28;20286;-88
2021/11/09 08:29:31;;;;;;;13.73;11.82;;;6.40;99.90;;;;;;5016220;28;20171;-88
2021/11/09 08:31:58;;;;;;;15.93;11.38;;;8.40;99.90;;;;;;5013482;28;20165;-86
2021/11/09 08:34:27;;;;;;;20.08;11.98;;;6.80;99.90;;;;;;4996596;28;20181;-86
2021/11/09 08:36:53;;;;;;;16.25;12.02;;;6.70;99.90;;;;;;4979188;28;20180;-86
2021/11/09 08:39:27;;;;;;;26.42;10.95;;;6.90;99.90;;;;;;4978944;28;20264;-87
2021/11/09 08:44:21;;;;;;;23.23;9.90;;;7.20;99.90;;;;;;4995398;28;20624;-87
2021/11/09 08:46:51;;;;;;;18.80;10.05;;;7.30;99.90;;;;;;4995703;28;20855;-87
2021/11/09 08:49:27;;;;;;;17.08;9.65;;;7.20;99.90;;;;;;4995911;28;20162;-86
2021/11/09 08:51:54;;;;;;;22.20;10.10;;;6.80;99.90;;;;;;4996520;28;20173;-86
2021/11/09 09:06:00;;;;;;;8.90;5.70;;;;;;;;;;5003621;28;20456;-89
2021/11/09 09:08:27;;;;;;;9.93;5.50;;;13.90;99.90;;;;;;5005124;28;20460;-90
2021/11/09 09:10:52;;;;;;;9.50;5.50;;;12.50;99.90;;;;;;4985661;28;20496;-88
2021/11/09 09:13:19;;;;;;;10.30;6.57;;;13.60;96.60;;;;;;4984425;28;20848;-90
2021/11/09 09:16:06;;;;;;;12.52;7.05;;;16.30;97.00;;;;;;4636799;28;9999760;-88
2021/11/09 09:18:36;;;;;;;6.93;6.33;;;16.20;91.90;;;;;;4970952;28;20212;-88
2021/11/09 09:21:19;;;;;;;11.20;6.63;;;18.90;87.50;;;;;;4973929;28;20471;-89
2021/11/09 09:33:01;;;;;;;7.40;6.70;;;;;;;;;;4987372;28;20531;-86
2021/11/09 09:57:22;;;;;;;5.57;4.63;;;;;;;;;;4994805;28;20412;-86
2021/11/09 09:59:52;;;;;;;5.20;4.80;;;;;;;;;;5014957;28;20562;-87
2021/11/09 10:02:24;;;;;;;6.57;4.77;;;;;;;;;;4997783;28;20742;-88
2021/11/09 10:04:57;;;;;;;6.43;4.53;;;;;;;;;;4996966;28;20783;-88
2021/11/09 10:07:43;;;;;;;5.33;4.83;;;;;;;;;;4997411;28;20990;-88
2021/11/09 10:10:11;;;;;;;4.90;4.40;;;;;;;;;;5014615;28;20771;-87
2021/11/09 10:12:41;;;;;;;4.77;4.37;;;;;;;;;;5015140;28;20447;-86
2021/11/09 10:15:19;;;;;;;5.30;4.90;;;;;;;;;;4998169;28;20775;-87
2021/11/09 10:18:14;;;;;;;4.73;3.97;;;;;;;;;;5027880;28;20411;-90
2021/11/09 10:20:49;;;;;;;5.63;4.60;;;;;;;;;;5026730;28;20467;-89
2021/11/09 10:23:53;;;;;;;5.20;4.70;;;;;;;;;;5013938;28;20423;-87
2021/11/09 10:26:24;;;;;;;3.97;3.53;;;;;;;;;;5013346;28;20438;-91
2021/11/09 10:28:52;;;;;;;6.37;3.70;;;;;;;;;;5031238;28;20407;-90
2021/11/09 10:31:26;;;;;;;3.63;3.43;;;;;;;;;;5011116;28;20495;-91
2021/11/09 10:33:55;;;;;;;5.77;3.90;;;;;;;;;;4654429;28;10000318;-91
2021/11/09 10:36:29;;;;;;;4.43;4.13;;;;;;;;;;4965214;28;20170;-88
2021/11/09 10:39:34;;;;;;;3.87;3.53;;;;;;;;;;4967570;28;20425;-89
2021/11/09 10:42:19;;;;;;;3.60;3.20;;;;;;;;;;4985313;28;20437;-93
2021/11/09 10:44:57;;;;;;;3.37;3.10;;;;;;;;;;4971666;28;20421;-92
2021/11/09 10:47:31;;;;;;;6.07;3.90;;;;;;;;;;4986837;28;20831;-88
2021/11/09 10:50:05;;;;;;;7.17;4.23;;;;;;;;;;4983383;28;20484;-89
2021/11/09 10:52:57;;;;;;;4.17;3.30;;;;;;;;;;4966357;28;20421;-92
2021/11/09 10:55:49;;;;;;;4.27;3.97;;;;;;;;;;4970957;28;20398;-90
2021/11/09 10:58:26;;;;;;;5.67;4.07;;;;;;;;;;4986146;28;20405;-92
2021/11/09 11:06:21;;;;;;;;;;;;;;;;;;;;;
2021/11/09 11:08:59;;;;;;;5.33;3.40;;;;;;;;;;4985521;28;20516;-91
2021/11/09 11:11:35;;;;;;;3.83;3.60;;;;;;;;;;4968620;28;20426;-92
2021/11/09 11:14:15;;;;;;;5.47;4.23;;;;;;;;;;4970221;28;20421;-90
2021/11/09 11:23:39;;;;;;;4.30;4.00;;;;;;;;;;4985998;28;20437;-92
2021/11/09 11:27:00;;;;;;;;;;;;;;;;;;;;;
2021/11/09 11:29:28;;;;;;;6.50;4.03;;;;;;;;;;4944486;29;20513;-90
2021/11/09 11:32:30;;;;;;;5.60;3.87;;;;;;;;;;4951947;29;20414;-89
2021/11/09 11:38:20;;;;;;;4.77;3.70;;;;;;;;;;4969768;29;20407;-91
2021/11/09 11:41:07;;;;;;;3.73;3.50;;;;;;;;;;4962938;29;20480;-88
2021/11/09 11:47:02;;;;;;;3.50;3.20;;;;;;;;;;4925244;29;20444;-92
2021/11/09 11:55:49;;;;;;;3.53;3.33;;;;;;;;;;4861422;29;20850;-91
2021/11/09 11:59:01;;;;;;;;;;;;;;;;;;;;;
2021/11/09 12:01:48;;;;;;;2.87;2.67;;;;;;;;;;4893150;29;20532;-89
2021/11/09 12:04:32;;;;;;;3.20;2.90;;;;;;;;;;4946680;29;20775;-90
2021/11/09 12:07:11;;;;;;;3.60;3.40;;;;;;;;;;4970561;28;20456;-91
2021/11/09 12:09:57;;;;;;;;;;;;;;;;;;;;;
2021/11/09 12:28:09;;;;;;;3.60;3.30;;;21.80;39.10;;;;;;4955385;29;20413;-89
2021/11/09 12:31:01;;;;;;;4.03;3.50;;;21.10;39.10;;;;;;4944099;29;20486;-90
2021/11/09 12:33:59;;;;;;;3.03;2.80;;;21.90;38.20;;;;;;4942594;29;20566;-89
2021/11/09 12:36:29;;;;;;;4.27;3.80;;;21.90;38.10;;;;;;4961435;29;20407;-89
2021/11/09 12:39:39;;;;;;;;;;;;;;;;;;;;;
2021/11/09 12:42:46;;;;;;;4.27;3.90;;;21.60;38.50;;;;;;4959387;29;21017;-89
2021/11/09 12:45:21;;;;;;;4.00;3.63;;;22.70;38.90;;;;;;4949804;29;20426;-88
2021/11/09 12:51:18;;;;;;;3.57;3.37;;;21.30;39.30;;;;;;5345853;23;20528;-88
2021/11/09 12:53:55;;;;;;;3.60;3.03;;;22.30;41.80;;;;;;4286632;28;10000716;-88
2021/11/09 12:56:56;;;;;;;;;;;;;;;;;;;;;
2021/11/09 13:00:03;;;;;;;;;;;;;;;;;;;;;
2021/11/09 13:03:15;;;;;;;5.77;3.27;;;21.00;39.90;;;;;;4973353;28;20409;-85
2021/11/09 13:05:48;;;;;;;3.83;3.53;;;22.00;41.00;;;;;;4965888;28;20766;-86
2021/11/09 13:08:25;;;;;;;4.77;3.30;;;18.40;37.30;;;;;;4973628;28;20865;-87
2021/11/09 13:10:51;;;;;;;3.53;3.33;;;21.80;39.50;;;;;;4958240;28;20925;-85
2021/11/09 13:13:20;;;;;;;3.10;2.83;;;21.40;40.20;;;;;;4974194;28;20516;-87
2021/11/09 13:15:46;;;;;;;3.50;3.20;;;21.10;38.30;;;;;;4975166;28;20248;-86
2021/11/09 13:18:12;;;;;;;3.43;2.90;;;21.50;38.60;;;;;;4958905;28;20449;-88
2021/11/09 13:20:49;;;;;;;3.20;3.00;;;21.80;38.30;;;;;;4958892;28;20477;-88
2021/11/09 13:23:20;;;;;;;3.27;3.07;;;24.00;38.60;;;;;;4975183;28;20161;-86
2021/11/09 13:25:50;;;;;;;3.70;2.80;;;23.20;37.90;;;;;;4959260;28;20497;-86
2021/11/09 13:28:21;;;;;;;7.27;3.50;;;23.40;39.20;;;;;;4958349;28;20409;-86
2021/11/09 13:30:55;;;;;;;6.27;3.17;;;21.20;38.50;;;;;;4957385;28;20433;-85
2021/11/09 13:33:23;;;;;;;3.40;3.10;;;20.50;38.80;;;;;;4957704;28;20417;-88
2021/11/09 13:35:49;;;;;;;3.47;3.23;;;21.60;39.30;;;;;;4957536;28;20429;-87
2021/11/09 13:38:36;;;;;;;3.97;3.03;;;21.40;39.50;;;;;;4975015;28;20427;-87
2021/11/09 13:41:28;;;;;;;3.10;3.00;;;19.90;39.70;;;;;;4973839;28;20476;-85
2021/11/09 13:44:02;;;;;;;3.97;3.40;;;19.30;39.80;;;;;;4973728;28;20837;-87
2021/11/09 13:46:30;;;;;;;3.83;3.47;;;19.50;39.90;;;;;;4957656;28;20901;-88
2021/11/09 13:49:03;;;;;;;3.60;2.70;;;20.00;40.10;;;;;;4957708;28;20409;-87
2021/11/09 13:51:49;;;;;;;2.80;2.70;;;20.00;39.00;;;;;;4982146;28;20460;-88
2021/11/09 13:54:25;;;;;;;5.50;3.17;;;21.50;41.20;;;;;;4969217;28;21000;-87
2021/11/09 13:57:15;;;;;;;6.23;3.00;;;19.40;39.40;;;;;;4967159;28;20784;-93
2021/11/09 13:59:45;;;;;;;3.40;2.93;;;22.30;41.70;;;;;;4971459;28;20559;-91
2021/11/09 14:02:25;;;;;;;2.77;2.67;;;20.40;42.40;;;;;;4975407;28;20464;-84
2021/11/09 14:07:46;;;;;;;4.37;3.10;;;19.70;41.60;;;;;;4974230;28;20937;-86
2021/11/09 14:18:32;;;;;;;5.93;3.07;;;19.70;41.20;;;;;;4975185;28;21033;-84
2021/11/09 14:21:04;;;;;;;7.60;3.60;;;19.90;41.80;;;;;;4974372;28;20580;-86
2021/11/09 14:23:36;;;;;;;4.10;3.50;;;19.10;41.80;;;;;;4974854;28;20169;-86
2021/11/09 14:26:22;;;;;;;6.33;4.53;;;18.80;42.40;;;;;;4975638;28;20406;-87
2021/11/09 14:28:49;;;;;;;5.93;3.00;;;18.10;43.70;;;;;;4958798;28;20772;-85
2021/11/09 14:31:27;;;;;;;3.23;3.03;;;18.30;44.10;;;;;;4958508;28;20413;-85
2021/11/09 14:34:13;;;;;;;3.17;2.90;;;17.10;44.40;;;;;;4975816;28;20428;-86
2021/11/09 14:36:40;;;;;;;4.00;3.30;;;16.60;45.10;;;;;;4974059;28;20417;-86
2021/11/09 14:39:19;;;;;;;3.80;3.50;;;16.90;45.40;;;;;;4975569;28;20444;-85
2021/11/09 14:45:26;;;;;;;4.30;3.30;;;16.50;46.80;;;;;;4385509;28;10001903;-86
2021/11/09 14:47:57;;;;;;;5.50;3.20;;;16.40;47.60;;;;;;4971516;28;20409;-87
2021/11/09 14:50:39;;;;;;;5.80;3.80;;;16.70;48.40;;;;;;4954281;28;20500;-85
2021/11/09 14:53:24;;;;;;;5.20;3.10;;;17.30;50.30;;;;;;4954146;28;20440;-87
2021/11/09 14:56:05;;;;;;;4.10;3.77;;;15.60;49.60;;;;;;4954291;28;20504;-85
2021/11/09 14:58:33;;;;;;;6.87;3.40;;;15.40;50.30;;;;;;4954221;28;20480;-86
2021/11/09 15:01:06;;;;;;;4.53;3.20;;;15.20;50.50;;;;;;4970999;28;20538;-85
2021/11/09 15:03:50;;;;;;;3.27;2.97;;;15.10;51.80;;;;;;4954299;28;21154;-84
2021/11/09 15:06:25;;;;;;;3.40;3.17;;;14.90;52.50;;;;;;4971460;28;20402;-85
2021/11/09 15:09:06;;;;;;;6.30;3.27;;;14.80;53.20;;;;;;4973631;28;20433;-85
2021/11/09 15:11:47;;;;;;;4.10;3.23;;;15.90;55.20;;;;;;4974507;28;20485;-84
2021/11/09 15:25:26;;;;;;;4.60;3.40;;;14.50;56.90;;;;;;4974195;28;20448;-84
2021/11/09 15:33:30;;;;;;;3.90;3.60;;;13.30;76.60;;;;;;4983213;28;20440;-92
2021/11/09 15:38:25;;;;;;;11.17;5.20;;;12.90;92.20;;;;;;4982864;28;20453;-88
2021/11/09 15:40:52;;;;;;;4.33;3.93;;;13.60;94.70;;;;;;4963535;28;20481;-91
2021/11/09 15:43:17;;;;;;;4.03;3.70;;;12.90;96.90;;;;;;4967456;28;20467;-92
2021/11/09 15:45:45;;;;;;;7.60;3.50;;;12.20;98.30;;;;;;4984116;28;20448;-92
2021/11/09 15:48:15;;;;;;;7.47;4.37;;;12.40;99.90;;;;;;4973641;28;20247;-92
2021/11/09 15:50:41;;;;;;;4.30;3.90;;;11.90;99.10;;;;;;4961007;29;20519;-90
2021/11/09 15:53:24;;;;;;;4.90;4.60;;;10.80;99.90;;;;;;5118056;27;21144;-90
2021/11/09 15:55:55;;;;;;;8.60;4.50;;;13.40;99.90;;;;;;5119639;28;20403;-93
2021/11/09 15:58:25;;;;;;;8.33;4.57;;;11.90;99.90;;;;;;5118199;28;20504;-89
2021/11/09 16:00:54;;;;;;;5.90;3.87;;;13.10;99.90;;;;;;5125133;27;20423;-88
2021/11/09 16:03:28;;;;;;;3.80;3.70;;;11.80;99.90;;;;;;5127581;27;20407;-90
2021/11/09 16:05:57;;;;;;;8.98;4.35;;;11.20;99.90;;;;;;5121103;28;20189;-91
2021/11/09 16:08:23;;;;;;;5.45;4.63;;;13.40;99.90;;;;;;5121785;28;20519;-89
2021/11/09 16:11:01;;;;;;;;;;;;;;;;;;;;;
2021/11/09 16:13:30;;;;;;;4.63;4.18;;;10.00;99.90;;;;;;5119905;28;20522;-93
2021/11/09 16:15:56;;;;;;;17.27;6.37;;;10.70;99.90;;;;;;5119843;28;20173;-92
2021/11/09 16:18:27;;;;;;;8.17;4.73;;;12.50;99.90;;;;;;5122146;28;20438;-91
2021/11/09 16:20:56;;;;;;;5.28;4.72;;;11.90;99.90;;;;;;5118849;28;20509;-90
2021/11/09 16:23:24;;;;;;;4.27;4.00;;;10.90;99.90;;;;;;5123654;27;20283;-90
2021/11/09 16:25:54;;;;;;;7.63;4.75;;;12.40;99.90;;;;;;5124262;28;20439;-93
2021/11/09 16:28:22;;;;;;;8.55;4.85;;;10.00;99.90;;;;;;5124502;28;20169;-92
2021/11/09 16:30:50;;;;;;;4.40;3.80;;;9.10;99.90;;;;;;5124045;28;20241;-91
2021/11/09 16:36:08;;;;;;;10.10;4.70;;;12.40;99.90;;;;;;5125770;28;20177;-92
2021/11/09 16:38:50;;;;;;;8.73;5.32;;;12.50;99.90;;;;;;5104968;28;20691;-92
2021/11/09 16:41:20;;;;;;;6.85;4.03;;;9.30;99.90;;;;;;5123717;27;20274;-90
2021/11/09 16:44:04;;;;;;;5.60;4.60;;;11.00;99.90;;;;;;5122207;28;20162;-93
2021/11/09 16:49:19;;;;;;;6.80;4.10;;;8.00;99.90;;;;;;5114275;28;20180;-89
2021/11/09 16:51:52;;;;;;;6.78;5.35;;;9.40;99.90;;;;;;5107062;28;20234;-89
2021/11/09 16:54:54;;;;;;;11.32;5.68;;;9.60;99.90;;;;;;5100718;28;20197;-92
2021/11/09 18:20:07;;;;;;;6.85;5.50;;;9.40;99.90;;;;;;5096698;28;20189;-90
2021/11/09 18:22:51;;;;;;;;;;;;;;;;;;;;;
2021/11/09 18:25:29;;;;;;;;;;;;;;;;;;;;;
2021/11/09 18:28:20;;;;;;;11.77;5.97;;;9.10;99.90;;;;;;5099808;28;20264;-91